sensor_id;sensor_type;location;lat;lon;timestamp;temperature;humidity
60234;DHT22;49514;43.538;-5.708;2022-09-09T00:03:54;20.50;99.90
60234;DHT22;49514;43.538;-5.708;2022-09-09T00:06:31;20.60;99.90
60234;DHT22;49514;43.538;-5.708;2022-09-09T00:09:15;20.60;99.90
60234;DHT22;49514;43.538;-5.708;2022-09-09T00:11:52;20.50;99.90
60234;DHT22;49514;43.538;-5.708;2022-09-09T00:16:55;20.50;99.90
60234;DHT22;49514;43.538;-5.708;2022-09-09T00:19:33;20.50;99.90
60234;DHT22;49514;43.538;-5.708;2022-09-09T00:22:20;20.50;99.90
60234;DHT22;49514;43.538;-5.708;2022-09-09T00:25:02;20.50;99.90
60234;DHT22;49514;43.538;-5.708;2022-09-09T00:27:36;20.50;99.90
60234;DHT22;49514;43.538;-5.708;2022-09-09T00:30:18;20.50;99.90
60234;DHT22;49514;43.538;-5.708;2022-09-09T00:33:10;20.50;99.90
60234;DHT22;49514;43.538;-5.708;2022-09-09T00:36:01;20.50;99.90
60234;DHT22;49514;43.538;-5.708;2022-09-09T00:38:41;20.50;99.90
60234;DHT22;49514;43.538;-5.708;2022-09-09T00:41:17;20.50;99.90
60234;DHT22;49514;43.538;-5.708;2022-09-09T00:43:56;20.40;99.90
60234;DHT22;49514;43.538;-5.708;2022-09-09T00:46:39;20.40;99.90
60234;DHT22;49514;43.538;-5.708;2022-09-09T00:57:35;20.30;99.90
60234;DHT22;49514;43.538;-5.708;2022-09-09T01:06:10;20.30;99.90
60234;DHT22;49514;43.538;-5.708;2022-09-09T01:11:49;20.20;99.90
60234;DHT22;49514;43.538;-5.708;2022-09-09T01:16:57;20.20;99.90
60234;DHT22;49514;43.538;-5.708;2022-09-09T01:25:13;20.20;99.90
60234;DHT22;49514;43.538;-5.708;2022-09-09T01:27:56;20.10;99.90
60234;DHT22;49514;43.538;-5.708;2022-09-09T01:30:25;20.10;99.90
60234;DHT22;49514;43.538;-5.708;2022-09-09T01:32:57;20.00;99.90
60234;DHT22;49514;43.538;-5.708;2022-09-09T01:35:50;20.00;99.90
60234;DHT22;49514;43.538;-5.708;2022-09-09T01:38:24;20.00;99.90
60234;DHT22;49514;43.538;-5.708;2022-09-09T01:40:53;20.00;99.90
60234;DHT22;49514;43.538;-5.708;2022-09-09T01:43:25;20.00;99.90
60234;DHT22;49514;43.538;-5.708;2022-09-09T01:45:54;20.00;99.90
60234;DHT22;49514;43.538;-5.708;2022-09-09T01:48:23;20.00;99.90
60234;DHT22;49514;43.538;-5.708;2022-09-09T01:51:01;20.00;99.90
60234;DHT22;49514;43.538;-5.708;2022-09-09T01:53:27;20.00;99.90
60234;DHT22;49514;43.538;-5.708;2022-09-09T01:59:14;20.00;99.90
60234;DHT22;49514;43.538;-5.708;2022-09-09T02:02:08;20.00;99.90
60234;DHT22;49514;43.538;-5.708;2022-09-09T02:04:50;20.00;99.90
60234;DHT22;49514;43.538;-5.708;2022-09-09T02:07:46;20.00;99.90
60234;DHT22;49514;43.538;-5.708;2022-09-09T02:10:46;20.00;99.90
60234;DHT22;49514;43.538;-5.708;2022-09-09T02:13:25;20.00;99.90
60234;DHT22;49514;43.538;-5.708;2022-09-09T02:15:59;20.00;99.90
60234;DHT22;49514;43.538;-5.708;2022-09-09T02:18:35;20.00;99.90
60234;DHT22;49514;43.538;-5.708;2022-09-09T02:21:05;20.00;99.90
60234;DHT22;49514;43.538;-5.708;2022-09-09T02:23:34;20.00;99.90
60234;DHT22;49514;43.538;-5.708;2022-09-09T02:26:04;19.90;99.90
60234;DHT22;49514;43.538;-5.708;2022-09-09T02:28:34;20.00;99.90
60234;DHT22;49514;43.538;-5.708;2022-09-09T02:31:01;19.90;99.90
60234;DHT22;49514;43.538;-5.708;2022-09-09T02:33:38;19.90;99.90
60234;DHT22;49514;43.538;-5.708;2022-09-09T02:36:08;19.90;99.90
60234;DHT22;49514;43.538;-5.708;2022-09-09T02:38:40;19.90;99.90
60234;DHT22;49514;43.538;-5.708;2022-09-09T02:41:12;19.90;99.90
60234;DHT22;49514;43.538;-5.708;2022-09-09T02:43:39;19.90;99.90
60234;DHT22;49514;43.538;-5.708;2022-09-09T02:49:17;19.90;99.90
60234;DHT22;49514;43.538;-5.708;2022-09-09T02:52:01;19.90;99.90
60234;DHT22;49514;43.538;-5.708;2022-09-09T02:54:35;19.90;99.90
60234;DHT22;49514;43.538;-5.708;2022-09-09T02:57:27;19.90;99.90
60234;DHT22;49514;43.538;-5.708;2022-09-09T03:00:00;19.80;99.90
60234;DHT22;49514;43.538;-5.708;2022-09-09T03:02:31;19.80;99.90
60234;DHT22;49514;43.538;-5.708;2022-09-09T03:05:04;19.90;99.90
60234;DHT22;49514;43.538;-5.708;2022-09-09T03:07:31;19.80;99.90
60234;DHT22;49514;43.538;-5.708;2022-09-09T03:09:58;19.90;99.90
60234;DHT22;49514;43.538;-5.708;2022-09-09T03:12:27;19.80;99.90
60234;DHT22;49514;43.538;-5.708;2022-09-09T03:14:53;19.80;99.90
60234;DHT22;49514;43.538;-5.708;2022-09-09T03:17:20;19.80;99.90
60234;DHT22;49514;43.538;-5.708;2022-09-09T03:19:52;19.90;99.90
60234;DHT22;49514;43.538;-5.708;2022-09-09T03:22:21;19.90;99.90
60234;DHT22;49514;43.538;-5.708;2022-09-09T03:24:48;19.90;99.90
60234;DHT22;49514;43.538;-5.708;2022-09-09T03:27:15;19.80;99.90
60234;DHT22;49514;43.538;-5.708;2022-09-09T03:29:42;19.90;99.90
60234;DHT22;49514;43.538;-5.708;2022-09-09T03:32:13;19.80;99.90
60234;DHT22;49514;43.538;-5.708;2022-09-09T03:34:44;19.80;99.90
60234;DHT22;49514;43.538;-5.708;2022-09-09T03:37:13;19.80;99.90
60234;DHT22;49514;43.538;-5.708;2022-09-09T03:39:40;19.80;99.90
60234;DHT22;49514;43.538;-5.708;2022-09-09T03:42:08;19.80;99.90
60234;DHT22;49514;43.538;-5.708;2022-09-09T03:44:35;19.80;99.90
60234;DHT22;49514;43.538;-5.708;2022-09-09T03:47:01;19.80;99.90
60234;DHT22;49514;43.538;-5.708;2022-09-09T03:49:28;19.80;99.90
60234;DHT22;49514;43.538;-5.708;2022-09-09T03:51:56;19.80;99.90
60234;DHT22;49514;43.538;-5.708;2022-09-09T03:54:24;19.80;99.90
60234;DHT22;49514;43.538;-5.708;2022-09-09T03:56:51;19.80;99.90
60234;DHT22;49514;43.538;-5.708;2022-09-09T03:59:17;19.70;99.90
60234;DHT22;49514;43.538;-5.708;2022-09-09T04:01:44;19.70;99.90
60234;DHT22;49514;43.538;-5.708;2022-09-09T04:04:11;19.70;99.90
60234;DHT22;49514;43.538;-5.708;2022-09-09T04:06:38;19.70;99.90
60234;DHT22;49514;43.538;-5.708;2022-09-09T04:09:05;19.70;99.90
60234;DHT22;49514;43.538;-5.708;2022-09-09T04:11:33;19.70;99.90
60234;DHT22;49514;43.538;-5.708;2022-09-09T04:14:00;19.70;99.90
60234;DHT22;49514;43.538;-5.708;2022-09-09T04:16:28;19.70;99.90
60234;DHT22;49514;43.538;-5.708;2022-09-09T04:18:55;19.70;99.90
60234;DHT22;49514;43.538;-5.708;2022-09-09T04:21:22;19.70;99.90
60234;DHT22;49514;43.538;-5.708;2022-09-09T04:23:49;19.70;99.90
60234;DHT22;49514;43.538;-5.708;2022-09-09T04:26:18;19.70;99.90
60234;DHT22;49514;43.538;-5.708;2022-09-09T04:28:45;19.70;99.90
60234;DHT22;49514;43.538;-5.708;2022-09-09T04:31:19;19.70;99.90
60234;DHT22;49514;43.538;-5.708;2022-09-09T04:33:49;19.70;99.90
60234;DHT22;49514;43.538;-5.708;2022-09-09T04:36:17;19.70;99.90
60234;DHT22;49514;43.538;-5.708;2022-09-09T04:38:45;19.70;99.90
60234;DHT22;49514;43.538;-5.708;2022-09-09T04:41:12;19.70;99.90
60234;DHT22;49514;43.538;-5.708;2022-09-09T04:43:43;19.60;99.90
60234;DHT22;49514;43.538;-5.708;2022-09-09T04:46:10;19.60;99.90
60234;DHT22;49514;43.538;-5.708;2022-09-09T04:48:37;19.60;99.90
60234;DHT22;49514;43.538;-5.708;2022-09-09T04:51:08;19.60;99.90
60234;DHT22;49514;43.538;-5.708;2022-09-09T04:53:36;19.50;99.90
60234;DHT22;49514;43.538;-5.708;2022-09-09T04:56:13;19.50;99.90
60234;DHT22;49514;43.538;-5.708;2022-09-09T04:58:48;19.50;99.90
60234;DHT22;49514;43.538;-5.708;2022-09-09T05:01:21;19.50;99.90
60234;DHT22;49514;43.538;-5.708;2022-09-09T05:03:50;19.50;99.90
60234;DHT22;49514;43.538;-5.708;2022-09-09T05:06:22;19.40;99.90
60234;DHT22;49514;43.538;-5.708;2022-09-09T05:08:52;19.40;99.90
60234;DHT22;49514;43.538;-5.708;2022-09-09T05:11:28;19.40;99.90
60234;DHT22;49514;43.538;-5.708;2022-09-09T05:14:07;19.30;99.90
60234;DHT22;49514;43.538;-5.708;2022-09-09T05:16:35;19.30;99.90
60234;DHT22;49514;43.538;-5.708;2022-09-09T05:19:02;19.30;99.90
60234;DHT22;49514;43.538;-5.708;2022-09-09T05:21:39;19.30;99.90
60234;DHT22;49514;43.538;-5.708;2022-09-09T05:24:07;19.30;99.90
60234;DHT22;49514;43.538;-5.708;2022-09-09T05:26:34;19.30;99.90
60234;DHT22;49514;43.538;-5.708;2022-09-09T05:29:02;19.30;99.90
60234;DHT22;49514;43.538;-5.708;2022-09-09T05:31:30;19.30;99.90
60234;DHT22;49514;43.538;-5.708;2022-09-09T05:33:59;19.30;99.90
60234;DHT22;49514;43.538;-5.708;2022-09-09T05:36:26;19.30;99.90
60234;DHT22;49514;43.538;-5.708;2022-09-09T05:38:55;19.30;99.90
60234;DHT22;49514;43.538;-5.708;2022-09-09T05:41:24;19.20;99.90
60234;DHT22;49514;43.538;-5.708;2022-09-09T05:43:54;19.20;99.90
60234;DHT22;49514;43.538;-5.708;2022-09-09T05:46:24;19.20;99.90
60234;DHT22;49514;43.538;-5.708;2022-09-09T05:48:53;19.20;99.90
60234;DHT22;49514;43.538;-5.708;2022-09-09T05:51:27;19.20;99.90
60234;DHT22;49514;43.538;-5.708;2022-09-09T05:53:57;19.20;99.90
60234;DHT22;49514;43.538;-5.708;2022-09-09T05:56:30;19.20;99.90
60234;DHT22;49514;43.538;-5.708;2022-09-09T05:58:59;19.20;99.90
60234;DHT22;49514;43.538;-5.708;2022-09-09T06:01:32;19.20;99.90
60234;DHT22;49514;43.538;-5.708;2022-09-09T06:04:01;19.20;99.90
60234;DHT22;49514;43.538;-5.708;2022-09-09T06:06:36;19.30;99.90
60234;DHT22;49514;43.538;-5.708;2022-09-09T06:09:07;19.30;99.90
60234;DHT22;49514;43.538;-5.708;2022-09-09T06:11:38;19.30;99.90
60234;DHT22;49514;43.538;-5.708;2022-09-09T06:14:06;19.30;99.90
60234;DHT22;49514;43.538;-5.708;2022-09-09T06:16:33;19.30;99.90
60234;DHT22;49514;43.538;-5.708;2022-09-09T06:19:01;19.30;99.90
60234;DHT22;49514;43.538;-5.708;2022-09-09T06:21:36;19.30;99.90
60234;DHT22;49514;43.538;-5.708;2022-09-09T06:24:08;19.30;99.90
60234;DHT22;49514;43.538;-5.708;2022-09-09T06:26:39;19.30;99.90
60234;DHT22;49514;43.538;-5.708;2022-09-09T06:29:12;19.30;99.90
60234;DHT22;49514;43.538;-5.708;2022-09-09T06:31:40;19.30;99.90
60234;DHT22;49514;43.538;-5.708;2022-09-09T06:34:15;19.30;99.90
60234;DHT22;49514;43.538;-5.708;2022-09-09T06:36:46;19.40;99.90
60234;DHT22;49514;43.538;-5.708;2022-09-09T06:39:13;19.40;99.90
60234;DHT22;49514;43.538;-5.708;2022-09-09T06:41:42;19.50;99.90
60234;DHT22;49514;43.538;-5.708;2022-09-09T06:44:19;19.50;99.90
60234;DHT22;49514;43.538;-5.708;2022-09-09T06:46:46;19.60;99.90
60234;DHT22;49514;43.538;-5.708;2022-09-09T06:49:15;19.60;99.90
60234;DHT22;49514;43.538;-5.708;2022-09-09T06:51:42;19.60;99.90
60234;DHT22;49514;43.538;-5.708;2022-09-09T06:54:12;19.70;99.90
60234;DHT22;49514;43.538;-5.708;2022-09-09T06:56:42;19.70;99.90
60234;DHT22;49514;43.538;-5.708;2022-09-09T06:59:16;19.70;99.90
60234;DHT22;49514;43.538;-5.708;2022-09-09T07:01:44;19.80;99.90
60234;DHT22;49514;43.538;-5.708;2022-09-09T07:04:15;19.70;99.90
60234;DHT22;49514;43.538;-5.708;2022-09-09T07:06:45;19.70;99.90
60234;DHT22;49514;43.538;-5.708;2022-09-09T07:09:16;19.70;99.90
60234;DHT22;49514;43.538;-5.708;2022-09-09T07:11:48;19.60;99.90
60234;DHT22;49514;43.538;-5.708;2022-09-09T07:14:16;19.60;99.90
60234;DHT22;49514;43.538;-5.708;2022-09-09T07:16:47;19.70;99.90
60234;DHT22;49514;43.538;-5.708;2022-09-09T07:19:17;19.70;99.90
60234;DHT22;49514;43.538;-5.708;2022-09-09T07:21:45;19.60;99.90
60234;DHT22;49514;43.538;-5.708;2022-09-09T07:24:14;19.70;99.90
60234;DHT22;49514;43.538;-5.708;2022-09-09T07:26:43;19.80;99.90
60234;DHT22;49514;43.538;-5.708;2022-09-09T07:29:11;19.90;99.90
60234;DHT22;49514;43.538;-5.708;2022-09-09T07:31:41;20.00;99.90
60234;DHT22;49514;43.538;-5.708;2022-09-09T07:34:12;20.00;99.90
60234;DHT22;49514;43.538;-5.708;2022-09-09T07:36:40;20.00;99.90
60234;DHT22;49514;43.538;-5.708;2022-09-09T07:39:12;20.00;99.90
60234;DHT22;49514;43.538;-5.708;2022-09-09T07:41:45;19.90;99.90
60234;DHT22;49514;43.538;-5.708;2022-09-09T07:44:16;19.90;99.90
60234;DHT22;49514;43.538;-5.708;2022-09-09T07:46:46;19.90;99.90
60234;DHT22;49514;43.538;-5.708;2022-09-09T07:49:17;19.90;99.90
60234;DHT22;49514;43.538;-5.708;2022-09-09T07:51:47;19.90;99.90
60234;DHT22;49514;43.538;-5.708;2022-09-09T07:54:18;19.90;99.90
60234;DHT22;49514;43.538;-5.708;2022-09-09T07:56:51;20.00;99.90
60234;DHT22;49514;43.538;-5.708;2022-09-09T07:59:20;20.00;99.90
60234;DHT22;49514;43.538;-5.708;2022-09-09T08:01:51;20.10;99.90
60234;DHT22;49514;43.538;-5.708;2022-09-09T08:04:23;20.10;99.90
60234;DHT22;49514;43.538;-5.708;2022-09-09T08:06:59;20.20;99.90
60234;DHT22;49514;43.538;-5.708;2022-09-09T08:09:29;20.20;99.90
60234;DHT22;49514;43.538;-5.708;2022-09-09T08:12:07;20.20;99.90
60234;DHT22;49514;43.538;-5.708;2022-09-09T08:14:34;20.20;99.90
60234;DHT22;49514;43.538;-5.708;2022-09-09T08:17:02;20.30;99.90
60234;DHT22;49514;43.538;-5.708;2022-09-09T08:19:32;20.30;99.90
60234;DHT22;49514;43.538;-5.708;2022-09-09T08:22:03;20.40;99.90
60234;DHT22;49514;43.538;-5.708;2022-09-09T08:24:32;20.50;99.90
60234;DHT22;49514;43.538;-5.708;2022-09-09T08:26:59;20.60;99.90
60234;DHT22;49514;43.538;-5.708;2022-09-09T08:29:27;20.70;99.90
60234;DHT22;49514;43.538;-5.708;2022-09-09T08:34:25;20.90;99.90
60234;DHT22;49514;43.538;-5.708;2022-09-09T08:36:53;20.90;99.90
60234;DHT22;49514;43.538;-5.708;2022-09-09T08:39:26;21.00;99.90
60234;DHT22;49514;43.538;-5.708;2022-09-09T08:47:38;21.00;99.90
60234;DHT22;49514;43.538;-5.708;2022-09-09T08:53:11;21.00;99.90
60234;DHT22;49514;43.538;-5.708;2022-09-09T08:55:48;21.20;99.90
60234;DHT22;49514;43.538;-5.708;2022-09-09T08:58:26;21.20;99.90
60234;DHT22;49514;43.538;-5.708;2022-09-09T09:07:12;21.30;99.90
60234;DHT22;49514;43.538;-5.708;2022-09-09T09:12:35;21.60;99.90
60234;DHT22;49514;43.538;-5.708;2022-09-09T09:15:16;21.70;99.90
60234;DHT22;49514;43.538;-5.708;2022-09-09T09:17:44;21.70;99.90
60234;DHT22;49514;43.538;-5.708;2022-09-09T09:20:16;21.70;99.90
60234;DHT22;49514;43.538;-5.708;2022-09-09T09:22:52;21.90;99.90
60234;DHT22;49514;43.538;-5.708;2022-09-09T09:25:31;22.00;99.90
60234;DHT22;49514;43.538;-5.708;2022-09-09T09:28:17;22.10;99.90
60234;DHT22;49514;43.538;-5.708;2022-09-09T09:31:00;22.10;99.90
60234;DHT22;49514;43.538;-5.708;2022-09-09T09:33:51;22.00;99.90
60234;DHT22;49514;43.538;-5.708;2022-09-09T09:36:34;22.00;99.90
60234;DHT22;49514;43.538;-5.708;2022-09-09T09:39:03;21.80;99.90
60234;DHT22;49514;43.538;-5.708;2022-09-09T09:41:39;21.70;99.90
60234;DHT22;49514;43.538;-5.708;2022-09-09T09:44:39;21.60;99.90
60234;DHT22;49514;43.538;-5.708;2022-09-09T09:47:16;21.60;99.90
60234;DHT22;49514;43.538;-5.708;2022-09-09T09:50:00;21.50;99.90
60234;DHT22;49514;43.538;-5.708;2022-09-09T09:52:32;21.50;99.90
60234;DHT22;49514;43.538;-5.708;2022-09-09T09:55:04;21.60;99.90
60234;DHT22;49514;43.538;-5.708;2022-09-09T09:57:34;21.60;99.90
60234;DHT22;49514;43.538;-5.708;2022-09-09T10:02:43;21.70;99.90
60234;DHT22;49514;43.538;-5.708;2022-09-09T10:11:03;21.80;99.90
60234;DHT22;49514;43.538;-5.708;2022-09-09T10:16:35;21.70;99.90
60234;DHT22;49514;43.538;-5.708;2022-09-09T10:19:12;21.70;99.90
60234;DHT22;49514;43.538;-5.708;2022-09-09T10:22:06;21.70;99.90
60234;DHT22;49514;43.538;-5.708;2022-09-09T10:33:33;21.70;99.90
60234;DHT22;49514;43.538;-5.708;2022-09-09T10:36:17;21.60;99.90
60234;DHT22;49514;43.538;-5.708;2022-09-09T10:38:47;21.60;99.90
60234;DHT22;49514;43.538;-5.708;2022-09-09T10:52:20;21.60;99.90
60234;DHT22;49514;43.538;-5.708;2022-09-09T10:57:53;21.60;99.90
60234;DHT22;49514;43.538;-5.708;2022-09-09T11:02:56;21.70;99.90
60234;DHT22;49514;43.538;-5.708;2022-09-09T11:08:30;21.70;99.90
60234;DHT22;49514;43.538;-5.708;2022-09-09T11:11:56;21.70;99.90
60234;DHT22;49514;43.538;-5.708;2022-09-09T11:17:13;21.80;99.90
60234;DHT22;49514;43.538;-5.708;2022-09-09T11:19:44;21.80;99.90
60234;DHT22;49514;43.538;-5.708;2022-09-09T11:23:18;22.00;99.90
60234;DHT22;49514;43.538;-5.708;2022-09-09T11:25:31;22.00;99.90
60234;DHT22;49514;43.538;-5.708;2022-09-09T11:28:25;22.00;99.90
60234;DHT22;49514;43.538;-5.708;2022-09-09T11:41:48;22.20;99.90
60234;DHT22;49514;43.538;-5.708;2022-09-09T11:44:28;22.20;99.90
60234;DHT22;49514;43.538;-5.708;2022-09-09T11:46:56;22.20;99.90
60234;DHT22;49514;43.538;-5.708;2022-09-09T11:49:40;22.30;99.90
60234;DHT22;49514;43.538;-5.708;2022-09-09T11:52:39;22.40;99.90
60234;DHT22;49514;43.538;-5.708;2022-09-09T11:55:32;22.50;99.90
60234;DHT22;49514;43.538;-5.708;2022-09-09T12:00:41;22.60;99.50
60234;DHT22;49514;43.538;-5.708;2022-09-09T12:05:59;22.70;99.90
60234;DHT22;49514;43.538;-5.708;2022-09-09T12:08:36;22.80;99.00
60234;DHT22;49514;43.538;-5.708;2022-09-09T12:11:03;22.90;98.80
60234;DHT22;49514;43.538;-5.708;2022-09-09T12:13:31;23.00;98.40
60234;DHT22;49514;43.538;-5.708;2022-09-09T12:15:59;23.10;98.40
60234;DHT22;49514;43.538;-5.708;2022-09-09T12:21:29;23.40;97.90
60234;DHT22;49514;43.538;-5.708;2022-09-09T12:29:35;23.70;96.60
60234;DHT22;49514;43.538;-5.708;2022-09-09T12:32:09;23.80;96.00
60234;DHT22;49514;43.538;-5.708;2022-09-09T12:37:17;24.70;94.80
60234;DHT22;49514;43.538;-5.708;2022-09-09T12:39:53;26.00;92.40
60234;DHT22;49514;43.538;-5.708;2022-09-09T12:42:21;27.60;90.30
60234;DHT22;49514;43.538;-5.708;2022-09-09T12:44:52;28.40;84.70
60234;DHT22;49514;43.538;-5.708;2022-09-09T12:47:23;29.90;81.30
60234;DHT22;49514;43.538;-5.708;2022-09-09T12:57:26;36.70;82.00
60234;DHT22;49514;43.538;-5.708;2022-09-09T13:00:11;36.90;77.10
60234;DHT22;49514;43.538;-5.708;2022-09-09T13:03:31;37.70;71.70
60234;DHT22;49514;43.538;-5.708;2022-09-09T13:08:09;39.30;60.80
60234;DHT22;49514;43.538;-5.708;2022-09-09T13:10:55;40.40;58.00
60234;DHT22;49514;43.538;-5.708;2022-09-09T13:13:28;41.20;58.30
60234;DHT22;49514;43.538;-5.708;2022-09-09T13:15:58;42.10;57.60
60234;DHT22;49514;43.538;-5.708;2022-09-09T13:18:32;43.00;53.30
60234;DHT22;49514;43.538;-5.708;2022-09-09T13:21:00;43.50;56.50
60234;DHT22;49514;43.538;-5.708;2022-09-09T13:23:30;44.00;52.30
60234;DHT22;49514;43.538;-5.708;2022-09-09T13:26:35;44.60;52.40
60234;DHT22;49514;43.538;-5.708;2022-09-09T13:29:17;45.10;53.20
60234;DHT22;49514;43.538;-5.708;2022-09-09T13:31:45;44.80;51.90
60234;DHT22;49514;43.538;-5.708;2022-09-09T13:34:26;45.20;49.80
60234;DHT22;49514;43.538;-5.708;2022-09-09T13:37:02;45.10;50.00
60234;DHT22;49514;43.538;-5.708;2022-09-09T13:39:36;46.20;49.70
60234;DHT22;49514;43.538;-5.708;2022-09-09T13:42:04;47.20;49.30
60234;DHT22;49514;43.538;-5.708;2022-09-09T13:44:34;46.90;47.70
60234;DHT22;49514;43.538;-5.708;2022-09-09T13:49:41;47.90;48.00
60234;DHT22;49514;43.538;-5.708;2022-09-09T13:52:13;48.70;59.80
60234;DHT22;49514;43.538;-5.708;2022-09-09T13:54:41;49.20;46.30
60234;DHT22;49514;43.538;-5.708;2022-09-09T13:57:20;49.90;45.40
60234;DHT22;49514;43.538;-5.708;2022-09-09T13:59:47;50.50;46.20
60234;DHT22;49514;43.538;-5.708;2022-09-09T14:02:15;50.80;45.80
60234;DHT22;49514;43.538;-5.708;2022-09-09T14:04:43;51.10;45.10
60234;DHT22;49514;43.538;-5.708;2022-09-09T14:07:14;51.50;51.70
60234;DHT22;49514;43.538;-5.708;2022-09-09T14:09:42;51.90;54.90
60234;DHT22;49514;43.538;-5.708;2022-09-09T14:12:12;52.40;52.80
60234;DHT22;49514;43.538;-5.708;2022-09-09T14:14:41;52.00;43.00
60234;DHT22;49514;43.538;-5.708;2022-09-09T14:17:09;52.50;42.90
60234;DHT22;49514;43.538;-5.708;2022-09-09T14:19:36;52.50;43.20
60234;DHT22;49514;43.538;-5.708;2022-09-09T14:22:03;53.10;45.20
60234;DHT22;49514;43.538;-5.708;2022-09-09T14:24:30;53.00;43.10
60234;DHT22;49514;43.538;-5.708;2022-09-09T14:26:56;53.10;41.90
60234;DHT22;49514;43.538;-5.708;2022-09-09T14:29:23;53.00;42.40
60234;DHT22;49514;43.538;-5.708;2022-09-09T14:31:53;53.00;41.50
60234;DHT22;49514;43.538;-5.708;2022-09-09T14:36:46;53.20;60.30
60234;DHT22;49514;43.538;-5.708;2022-09-09T14:41:40;53.90;40.80
60234;DHT22;49514;43.538;-5.708;2022-09-09T14:44:07;53.80;45.30
60234;DHT22;49514;43.538;-5.708;2022-09-09T14:46:35;53.70;49.10
60234;DHT22;49514;43.538;-5.708;2022-09-09T14:49:01;53.50;56.50
60234;DHT22;49514;43.538;-5.708;2022-09-09T14:56:26;53.40;49.80
60234;DHT22;49514;43.538;-5.708;2022-09-09T14:58:55;53.70;39.70
60234;DHT22;49514;43.538;-5.708;2022-09-09T15:01:23;53.90;39.50
60234;DHT22;49514;43.538;-5.708;2022-09-09T15:03:54;53.80;39.10
60234;DHT22;49514;43.538;-5.708;2022-09-09T15:06:22;54.00;39.40
60234;DHT22;49514;43.538;-5.708;2022-09-09T15:08:51;53.40;39.10
60234;DHT22;49514;43.538;-5.708;2022-09-09T15:11:19;53.50;39.30
60234;DHT22;49514;43.538;-5.708;2022-09-09T15:13:46;53.40;38.80
60234;DHT22;49514;43.538;-5.708;2022-09-09T15:16:18;53.70;37.80
60234;DHT22;49514;43.538;-5.708;2022-09-09T15:18:46;53.30;38.60
60234;DHT22;49514;43.538;-5.708;2022-09-09T15:21:18;53.40;38.50
60234;DHT22;49514;43.538;-5.708;2022-09-09T15:23:45;53.10;38.90
60234;DHT22;49514;43.538;-5.708;2022-09-09T15:26:14;53.40;38.30
60234;DHT22;49514;43.538;-5.708;2022-09-09T15:28:43;53.60;38.30
60234;DHT22;49514;43.538;-5.708;2022-09-09T15:31:20;53.50;37.50
60234;DHT22;49514;43.538;-5.708;2022-09-09T15:33:55;53.60;37.70
60234;DHT22;49514;43.538;-5.708;2022-09-09T15:36:35;53.30;37.50
60234;DHT22;49514;43.538;-5.708;2022-09-09T15:39:05;53.30;37.00
60234;DHT22;49514;43.538;-5.708;2022-09-09T15:41:32;52.40;37.50
60234;DHT22;49514;43.538;-5.708;2022-09-09T15:44:00;52.40;38.10
60234;DHT22;49514;43.538;-5.708;2022-09-09T15:46:32;52.40;37.60
60234;DHT22;49514;43.538;-5.708;2022-09-09T15:49:28;52.40;37.60
60234;DHT22;49514;43.538;-5.708;2022-09-09T15:51:59;52.10;37.50
60234;DHT22;49514;43.538;-5.708;2022-09-09T15:54:31;52.50;37.50
60234;DHT22;49514;43.538;-5.708;2022-09-09T15:57:01;52.60;37.20
60234;DHT22;49514;43.538;-5.708;2022-09-09T15:59:29;52.60;37.40
60234;DHT22;49514;43.538;-5.708;2022-09-09T16:01:57;52.80;37.50
60234;DHT22;49514;43.538;-5.708;2022-09-09T16:04:27;52.50;37.50
60234;DHT22;49514;43.538;-5.708;2022-09-09T16:07:05;52.60;37.40
60234;DHT22;49514;43.538;-5.708;2022-09-09T16:09:33;52.60;37.20
60234;DHT22;49514;43.538;-5.708;2022-09-09T16:12:02;52.30;37.40
60234;DHT22;49514;43.538;-5.708;2022-09-09T16:14:32;52.50;37.50
60234;DHT22;49514;43.538;-5.708;2022-09-09T16:17:03;52.40;37.30
60234;DHT22;49514;43.538;-5.708;2022-09-09T16:19:32;52.40;37.20
60234;DHT22;49514;43.538;-5.708;2022-09-09T16:22:01;51.90;37.10
60234;DHT22;49514;43.538;-5.708;2022-09-09T16:24:29;51.40;37.40
60234;DHT22;49514;43.538;-5.708;2022-09-09T16:26:55;51.20;37.50
60234;DHT22;49514;43.538;-5.708;2022-09-09T16:29:22;50.50;37.80
60234;DHT22;49514;43.538;-5.708;2022-09-09T16:31:50;50.40;38.00
60234;DHT22;49514;43.538;-5.708;2022-09-09T16:34:18;50.60;38.10
60234;DHT22;49514;43.538;-5.708;2022-09-09T16:36:46;50.90;38.00
60234;DHT22;49514;43.538;-5.708;2022-09-09T16:39:14;50.40;38.10
60234;DHT22;49514;43.538;-5.708;2022-09-09T16:41:43;49.60;38.30
60234;DHT22;49514;43.538;-5.708;2022-09-09T16:44:12;50.00;38.20
60234;DHT22;49514;43.538;-5.708;2022-09-09T16:46:41;48.90;38.60
60234;DHT22;49514;43.538;-5.708;2022-09-09T16:49:11;49.20;38.60
60234;DHT22;49514;43.538;-5.708;2022-09-09T16:51:43;49.20;38.50
60234;DHT22;49514;43.538;-5.708;2022-09-09T16:54:11;49.10;38.60
60234;DHT22;49514;43.538;-5.708;2022-09-09T16:56:41;49.00;38.70
60234;DHT22;49514;43.538;-5.708;2022-09-09T16:59:11;48.90;38.80
60234;DHT22;49514;43.538;-5.708;2022-09-09T17:01:39;49.10;38.50
60234;DHT22;49514;43.538;-5.708;2022-09-09T17:04:15;48.70;38.70
60234;DHT22;49514;43.538;-5.708;2022-09-09T17:06:48;48.90;38.60
60234;DHT22;49514;43.538;-5.708;2022-09-09T17:09:19;48.70;38.70
60234;DHT22;49514;43.538;-5.708;2022-09-09T17:11:47;48.10;39.00
60234;DHT22;49514;43.538;-5.708;2022-09-09T17:14:18;48.00;39.00
60234;DHT22;49514;43.538;-5.708;2022-09-09T17:16:46;47.70;39.10
60234;DHT22;49514;43.538;-5.708;2022-09-09T17:19:13;47.70;39.30
60234;DHT22;49514;43.538;-5.708;2022-09-09T17:21:40;47.20;39.50
60234;DHT22;49514;43.538;-5.708;2022-09-09T17:24:07;47.20;39.60
60234;DHT22;49514;43.538;-5.708;2022-09-09T17:26:34;46.80;39.70
60234;DHT22;49514;43.538;-5.708;2022-09-09T17:29:01;46.80;39.70
60234;DHT22;49514;43.538;-5.708;2022-09-09T17:31:29;46.50;39.80
60234;DHT22;49514;43.538;-5.708;2022-09-09T17:33:56;46.20;39.80
60234;DHT22;49514;43.538;-5.708;2022-09-09T17:36:30;46.00;40.00
60234;DHT22;49514;43.538;-5.708;2022-09-09T17:38:57;46.10;40.10
60234;DHT22;49514;43.538;-5.708;2022-09-09T17:41:28;45.90;40.20
60234;DHT22;49514;43.538;-5.708;2022-09-09T17:43:57;45.70;40.10
60234;DHT22;49514;43.538;-5.708;2022-09-09T17:46:26;45.40;40.20
60234;DHT22;49514;43.538;-5.708;2022-09-09T17:48:59;45.30;40.50
60234;DHT22;49514;43.538;-5.708;2022-09-09T17:51:28;44.90;40.80
60234;DHT22;49514;43.538;-5.708;2022-09-09T17:53:59;44.60;41.00
60234;DHT22;49514;43.538;-5.708;2022-09-09T17:56:27;44.00;41.40
60234;DHT22;49514;43.538;-5.708;2022-09-09T17:58:57;43.40;41.70
60234;DHT22;49514;43.538;-5.708;2022-09-09T18:01:26;42.80;42.50
60234;DHT22;49514;43.538;-5.708;2022-09-09T18:03:54;42.50;42.40
60234;DHT22;49514;43.538;-5.708;2022-09-09T18:06:31;41.90;42.60
60234;DHT22;49514;43.538;-5.708;2022-09-09T18:09:01;41.50;43.00
60234;DHT22;49514;43.538;-5.708;2022-09-09T18:11:30;40.90;43.50
60234;DHT22;49514;43.538;-5.708;2022-09-09T18:13:59;39.70;44.00
60234;DHT22;49514;43.538;-5.708;2022-09-09T18:16:28;38.40;45.20